Time;durP1;ratioP1;P1;durP2;ratioP2;P2;SDS_P1;SDS_P2;PMS_P1;PMS_P2;Temp;Humidity;BMP_temperature;BMP_pressure;BME280_temperature;BME280_humidity;BME280_pressure;Samples;Min_cycle;Max_cycle;Signal;HPM_P1;HPM_P2
2024/01/07 00:00:11;;;;;;;13.17;3.97;;;;;;;-14.68;49.75;100158.19;5074587;28;20058;-73
2024/01/07 00:02:37;;;;;;;11.27;4.57;;;;;;;-15.12;51.30;100074.81;5076123;28;20485;-73
2024/01/07 00:05:03;;;;;;;10.30;3.83;;;;;;;-14.66;51.17;100148.28;5078596;28;20076;-73
2024/01/07 00:07:31;;;;;;;9.33;3.87;;;;;;;-14.69;50.78;100143.91;5080002;28;20149;-74
2024/01/07 00:09:57;;;;;;;9.63;3.67;;;;;;;-14.92;50.89;100137.59;5073783;28;20134;-73
2024/01/07 00:12:24;;;;;;;9.70;3.90;;;;;;;-14.89;50.51;100150.34;5079408;28;20048;-73
2024/01/07 00:14:50;;;;;;;7.90;4.07;;;;;;;-14.82;51.19;100145.94;5076985;28;20147;-74
2024/01/07 00:17:17;;;;;;;16.37;4.43;;;;;;;-14.90;50.85;100145.22;5079347;28;20040;-74
2024/01/07 00:19:43;;;;;;;10.87;4.60;;;;;;;-14.80;50.69;100172.88;5077684;28;20044;-74
2024/01/07 00:22:09;;;;;;;12.93;4.40;;;;;;;-14.96;51.31;100159.59;5080725;28;20040;-73
2024/01/07 00:24:35;;;;;;;11.87;4.37;;;;;;;-15.01;50.14;100160.06;5083104;28;20064;-74
2024/01/07 00:27:01;;;;;;;10.80;4.63;;;;;;;-14.97;50.66;100188.69;5079296;28;20071;-73
2024/01/07 00:29:26;;;;;;;14.00;4.30;;;;;;;-15.04;51.58;100192.22;5078647;28;20070;-73
2024/01/07 00:31:52;;;;;;;7.50;4.00;;;;;;;-15.24;50.36;100182.75;5077421;28;20094;-75
2024/01/07 00:34:18;;;;;;;10.20;4.27;;;;;;;-15.38;50.11;100176.38;5083951;28;20056;-75
2024/01/07 00:36:44;;;;;;;7.37;3.07;;;;;;;-15.21;51.67;100205.53;5048204;28;20553;-75
2024/01/07 00:39:13;;;;;;;9.43;4.07;;;;;;;-15.23;51.47;100202.00;5083630;28;20043;-77
2024/01/07 00:41:39;;;;;;;12.43;3.93;;;;;;;-15.21;51.48;100212.13;5078980;28;20191;-75
2024/01/07 00:44:05;;;;;;;11.30;3.90;;;;;;;-15.30;51.08;100208.00;5081603;28;20138;-75
2024/01/07 00:46:31;;;;;;;4.90;3.03;;;;;;;-15.60;50.31;100196.69;5073275;28;20040;-76
2024/01/07 00:48:57;;;;;;;10.07;3.87;;;;;;;-15.52;50.53;100229.03;5083053;28;20135;-75
2024/01/07 00:51:23;;;;;;;9.23;3.90;;;;;;;-15.87;50.42;100194.81;5084850;28;20411;-75
2024/01/07 00:53:49;;;;;;;7.43;3.37;;;;;;;-15.61;51.41;100224.88;5064200;28;20040;-75
2024/01/07 00:56:15;;;;;;;7.33;3.23;;;;;;;-15.50;50.80;100242.56;5060176;28;20123;-75
2024/01/07 00:58:41;;;;;;;9.77;3.87;;;;;;;-15.88;51.93;100185.56;5051389;28;20047;-76
2024/01/07 01:01:07;;;;;;;8.80;3.77;;;;;;;-16.18;51.44;100141.81;5061487;28;20076;-76
2024/01/07 01:03:33;;;;;;;9.63;3.50;;;;;;;-15.59;52.05;100247.50;5080396;28;20093;-75
2024/01/07 01:05:59;;;;;;;11.97;3.90;;;;;;;-15.69;50.76;100230.72;5063647;28;20109;-76
2024/01/07 01:08:26;;;;;;;6.80;2.90;;;;;;;-15.50;51.67;100267.53;5078740;28;20085;-76
2024/01/07 01:10:52;;;;;;;6.40;2.90;;;;;;;-16.26;51.12;100158.47;5077807;28;20048;-77
2024/01/07 01:13:18;;;;;;;6.73;2.97;;;;;;;-15.84;50.96;100254.97;5065623;28;20036;-75
2024/01/07 01:15:44;;;;;;;7.77;3.60;;;;;;;-16.14;50.62;100222.81;5081445;28;20054;-75
2024/01/07 01:18:10;;;;;;;6.17;2.40;;;;;;;-16.33;50.54;100182.63;5082712;28;20036;-76
2024/01/07 01:20:35;;;;;;;9.43;3.20;;;;;;;-15.91;51.27;100287.53;5081858;28;20051;-75
2024/01/07 01:23:01;;;;;;;13.40;3.40;;;;;;;-15.94;51.15;100284.72;5082506;28;20048;-76
2024/01/07 01:25:29;;;;;;;11.30;3.37;;;;;;;-16.15;50.13;100269.28;5081649;28;20052;-75
2024/01/07 01:27:56;;;;;;;9.70;4.13;;;;;;;-15.98;51.31;100300.97;5063029;28;20044;-77
2024/01/07 01:30:22;;;;;;;10.13;4.93;;;;;;;-16.25;50.64;100279.91;5062500;28;20036;-77
2024/01/07 01:32:48;;;;;;;15.97;5.73;;;;;;;-16.39;50.46;100251.06;5063542;28;20509;-75
2024/01/07 01:35:14;;;;;;;9.67;3.50;;;;;;;-16.13;51.13;100294.41;5075833;28;20119;-76
2024/01/07 01:37:40;;;;;;;10.43;4.07;;;;;;;-16.26;50.73;100274.78;5079896;28;20829;-78
2024/01/07 01:40:06;;;;;;;9.50;3.17;;;;;;;-16.01;51.14;100305.66;5065870;28;20056;-76
2024/01/07 01:42:32;;;;;;;6.47;3.20;;;;;;;-15.96;50.95;100308.59;5083655;28;20040;-76
2024/01/07 01:45:01;;;;;;;5.90;2.47;;;;;;;-15.67;50.56;100328.19;5077682;28;20051;-76
2024/01/07 01:47:31;;;;;;;8.70;2.67;;;;;;;-15.84;50.26;100294.91;5062965;28;20523;-77
2024/01/07 01:49:58;;;;;;;6.70;2.83;;;;;;;-15.81;51.06;100314.28;5063855;28;20041;-77
2024/01/07 01:52:25;;;;;;;4.57;2.23;;;;;;;-15.66;51.50;100337.44;5066358;28;20044;-77
2024/01/07 01:54:51;;;;;;;8.60;2.90;;;;;;;-16.07;51.22;100247.63;5077188;28;20150;-77
2024/01/07 01:57:22;;;;;;;7.07;2.87;;;;;;;-15.45;50.53;100342.13;5080735;28;20035;-77
2024/01/07 01:59:49;;;;;;;4.90;2.40;;;;;;;-15.49;51.08;100324.19;5066361;28;20052;-77
2024/01/07 02:02:15;;;;;;;5.53;2.40;;;;;;;-15.37;50.93;100332.06;5080619;28;20544;-76
2024/01/07 02:04:41;;;;;;;5.57;2.60;;;;;;;-15.32;50.46;100343.38;5081672;28;20036;-75
2024/01/07 02:07:08;;;;;;;6.43;2.93;;;;;;;-15.35;50.83;100348.97;5076025;28;20040;-75
2024/01/07 02:09:34;;;;;;;11.27;2.60;;;;;;;-15.28;50.04;100357.94;5060837;28;20278;-75
2024/01/07 02:12:04;;;;;;;6.63;2.60;;;;;;;-15.34;51.27;100334.88;5065754;28;20399;-75
2024/01/07 02:14:31;;;;;;;4.40;2.47;;;;;;;-15.07;50.91;100368.34;5081921;28;20105;-74
2024/01/07 02:16:58;;;;;;;11.10;3.90;;;;;;;-15.21;50.33;100335.38;5078375;28;20040;-75
2024/01/07 02:19:24;;;;;;;9.77;4.30;;;;;;;-14.92;50.77;100372.44;5062983;28;20134;-74
2024/01/07 02:21:51;;;;;;;10.80;4.10;;;;;;;-14.87;50.59;100377.88;5094823;28;20056;-73
2024/01/07 02:24:17;;;;;;;10.57;4.40;;;;;;;-14.89;50.28;100374.34;5062648;28;20533;-74
2024/01/07 02:26:43;;;;;;;11.67;4.83;;;;;;;-14.91;50.52;100366.69;5060142;28;20044;-75
2024/01/07 02:29:09;;;;;;;6.93;3.53;;;;;;;-15.05;50.17;100359.41;5065321;28;20127;-75
2024/01/07 02:31:35;;;;;;;8.83;3.67;;;;;;;-15.04;50.11;100366.16;5077864;28;20109;-74
2024/01/07 02:34:01;;;;;;;7.43;4.00;;;;;;;-15.06;49.90;100345.16;5079692;28;20134;-77
2024/01/07 02:36:28;;;;;;;6.47;2.77;;;;;;;-14.75;49.81;100376.59;5080529;28;20111;-77
2024/01/07 02:38:54;;;;;;;6.50;2.80;;;;;;;-14.76;50.28;100376.47;5092900;28;20043;-76
2024/01/07 02:41:20;;;;;;;6.63;2.90;;;;;;;-14.84;50.55;100371.56;5065772;28;20056;-75
2024/01/07 02:43:47;;;;;;;7.97;3.10;;;;;;;-14.76;49.83;100391.47;5081749;28;20131;-76
2024/01/07 02:46:14;;;;;;;7.90;2.67;;;;;;;-14.96;50.04;100371.94;5049072;28;20135;-76
2024/01/07 02:48:40;;;;;;;6.13;2.60;;;;;;;-15.17;49.68;100359.03;5081783;28;20073;-75
2024/01/07 02:51:08;;;;;;;12.20;3.30;;;;;;;-15.23;49.81;100353.44;5045848;28;20040;-77
2024/01/07 02:53:34;;;;;;;8.23;3.27;;;;;;;-15.12;50.48;100387.00;5081287;28;20047;-76
2024/01/07 02:56:00;;;;;;;11.33;2.83;;;;;;;-15.23;49.34;100376.78;5082798;28;20036;-76
2024/01/07 02:58:26;;;;;;;7.57;3.10;;;;;;;-15.30;50.48;100379.38;5081943;28;20166;-75
2024/01/07 03:00:52;;;;;;;5.73;2.10;;;;;;;-15.20;50.92;100392.09;5081806;28;20078;-75
2024/01/07 03:03:18;;;;;;;8.57;3.70;;;;;;;-15.48;50.63;100350.94;5081773;28;20071;-76
2024/01/07 03:05:44;;;;;;;11.73;4.73;;;;;;;-15.24;50.16;100387.50;5077181;28;20601;-75
2024/01/07 03:08:10;;;;;;;9.53;4.07;;;;;;;-15.41;49.59;100372.41;5063919;28;20112;-76
2024/01/07 03:10:36;;;;;;;12.17;4.40;;;;;;;-15.49;49.86;100384.97;5060038;28;20040;-75
2024/01/07 03:13:02;;;;;;;9.43;3.00;;;;;;;-15.40;49.45;100421.63;5080926;28;20138;-76
2024/01/07 03:15:29;;;;;;;7.93;2.50;;;;;;;-15.94;49.85;100333.00;5079467;28;20031;-75
2024/01/07 03:17:57;;;;;;;7.40;2.53;;;;;;;-15.93;49.43;100362.22;5048372;28;20040;-76
2024/01/07 03:20:23;;;;;;;6.07;3.03;;;;;;;-15.71;50.15;100410.94;5075177;28;20051;-76
2024/01/07 03:22:49;;;;;;;7.27;3.10;;;;;;;-15.54;49.31;100441.03;5075828;28;20082;-76
2024/01/07 03:25:15;;;;;;;6.10;2.90;;;;;;;-15.51;50.41;100431.34;5061416;28;20099;-77
2024/01/07 03:27:42;;;;;;;11.40;3.67;;;;;;;-15.70;49.81;100405.22;5077320;28;20040;-77
2024/01/07 03:30:09;;;;;;;7.43;2.93;;;;;;;-15.47;49.68;100450.94;5076095;28;20050;-76
2024/01/07 03:32:35;;;;;;;6.97;2.60;;;;;;;-16.13;49.35;100335.16;5076377;28;20041;-76
2024/01/07 03:35:02;;;;;;;13.73;3.53;;;;;;;-15.61;49.22;100446.97;5081648;28;20048;-79
2024/01/07 03:37:30;;;;;;;8.60;2.83;;;;;;;-15.90;49.38;100424.00;5066256;28;20037;-76
2024/01/07 03:39:56;;;;;;;8.43;3.23;;;;;;;-15.89;49.77;100434.88;5080985;28;20060;-76
2024/01/07 03:42:22;;;;;;;8.17;2.70;;;;;;;-15.74;50.10;100461.41;5066023;28;20528;-76
2024/01/07 03:44:48;;;;;;;8.20;3.43;;;;;;;-15.82;49.08;100472.19;5067474;28;20131;-76
2024/01/07 03:47:14;;;;;;;4.90;2.77;;;;;;;-16.08;49.48;100445.38;5066049;28;20051;-77
2024/01/07 03:49:39;;;;;;;5.97;2.93;;;;;;;-16.22;49.51;100466.38;5065864;28;20433;-75
2024/01/07 03:52:06;;;;;;;7.97;3.40;;;;;;;-16.45;49.76;100464.78;5100159;28;20039;-76
2024/01/07 03:54:32;;;;;;;5.90;2.53;;;;;;;-16.54;50.10;100483.69;5081074;28;20161;-77
2024/01/07 03:56:59;;;;;;;6.47;2.60;;;;;;;-16.86;49.54;100453.63;5068060;28;20044;-76
2024/01/07 03:59:28;;;;;;;7.23;2.70;;;;;;;-16.77;49.67;100497.00;5084692;28;20459;-76
2024/01/07 04:01:55;;;;;;;5.40;2.53;;;;;;;-16.88;49.48;100495.81;5105288;28;20104;-75
2024/01/07 04:04:24;;;;;;;9.07;2.70;;;;;;;-16.94;48.83;100510.09;5072349;28;20040;-75
2024/01/07 04:06:50;;;;;;;5.47;2.47;;;;;;;-17.30;50.18;100463.00;5086642;28;20050;-76
2024/01/07 04:09:17;;;;;;;7.93;2.83;;;;;;;-17.23;49.90;100501.91;5079921;28;20047;-76
2024/01/07 04:11:43;;;;;;;9.03;3.03;;;;;;;-17.17;49.90;100522.50;5102445;28;20043;-77
2024/01/07 04:14:09;;;;;;;5.33;2.33;;;;;;;-17.39;49.53;100486.84;5083540;28;20416;-76
2024/01/07 04:16:35;;;;;;;10.10;3.17;;;;;;;-17.47;49.43;100481.00;5102881;28;20040;-76
2024/01/07 04:19:01;;;;;;;5.17;2.53;;;;;;;-17.32;49.48;100532.50;5068112;28;20146;-76
2024/01/07 04:21:28;;;;;;;6.87;2.47;;;;;;;-17.42;49.38;100534.69;5105433;28;20414;-76
2024/01/07 04:23:54;;;;;;;3.63;2.67;;;;;;;-17.68;48.41;100529.25;5071749;28;20054;-76
2024/01/07 04:26:22;;;;;;;6.37;2.67;;;;;;;-17.79;49.77;100538.84;5103489;28;20055;-75
2024/01/07 04:28:48;;;;;;;5.37;2.27;;;;;;;-17.83;49.37;100545.78;5069608;28;20047;-73
2024/01/07 04:31:15;;;;;;;6.90;2.97;;;;;;;-18.07;49.49;100498.41;5071791;28;20063;-74
2024/01/07 04:33:41;;;;;;;7.70;3.63;;;;;;;-17.92;49.87;100540.63;5083443;28;20054;-76
2024/01/07 04:36:07;;;;;;;10.37;3.23;;;;;;;-17.90;49.89;100546.69;5054162;28;20036;-74
2024/01/07 04:38:33;;;;;;;8.40;2.87;;;;;;;-18.14;49.76;100518.31;5086622;28;20093;-74
2024/01/07 04:40:59;;;;;;;5.07;2.53;;;;;;;-18.04;49.00;100569.97;5062485;28;20059;-74
2024/01/07 04:43:25;;;;;;;6.47;2.30;;;;;;;-18.18;49.84;100536.94;5083879;28;20040;-73
2024/01/07 04:45:51;;;;;;;7.33;3.50;;;;;;;-17.92;49.94;100570.47;5061150;28;20046;-74
2024/01/07 04:48:17;;;;;;;6.67;2.80;;;;;;;-18.18;49.94;100534.44;5084162;28;20405;-73
2024/01/07 04:50:43;;;;;;;4.07;2.23;;;;;;;-17.98;49.49;100570.66;5082428;28;20044;-73
2024/01/07 04:53:09;;;;;;;8.10;2.60;;;;;;;-18.05;49.12;100573.16;5066610;28;20502;-74
2024/01/07 04:55:36;;;;;;;5.03;1.73;;;;;;;-17.99;49.83;100577.97;5078432;28;20037;-74
2024/01/07 04:58:04;;;;;;;5.13;2.33;;;;;;;-18.02;49.66;100576.03;5065306;28;20138;-74
2024/01/07 05:00:30;;;;;;;7.03;2.50;;;;;;;-18.25;49.82;100563.38;5061435;28;20050;-73
2024/01/07 05:02:56;;;;;;;4.17;2.27;;;;;;;-18.48;49.67;100541.69;5076700;28;20047;-74
2024/01/07 05:05:22;;;;;;;7.37;2.90;;;;;;;-18.44;49.79;100551.28;5060269;28;20040;-74
2024/01/07 05:07:49;;;;;;;5.60;2.23;;;;;;;-18.16;49.95;100591.81;5079111;28;20134;-73
2024/01/07 05:10:15;;;;;;;6.07;2.30;;;;;;;-18.79;48.82;100528.19;5067338;28;20040;-74
2024/01/07 05:12:41;;;;;;;4.40;2.70;;;;;;;-18.95;49.97;100501.56;5066279;28;20040;-74
2024/01/07 05:15:08;;;;;;;12.07;2.63;;;;;;;-18.51;48.99;100601.84;5079326;28;21093;-74
2024/01/07 05:17:34;;;;;;;5.87;2.40;;;;;;;-18.63;49.79;100611.22;5051706;28;20043;-74
2024/01/07 05:20:00;;;;;;;5.37;2.03;;;;;;;-18.54;49.47;100628.81;5081629;28;21213;-74
2024/01/07 05:22:26;;;;;;;5.33;1.93;;;;;;;-18.42;49.71;100631.00;5081773;28;20050;-76
2024/01/07 05:24:52;;;;;;;6.20;2.67;;;;;;;-18.60;49.44;100585.84;5080927;28;20066;-75
2024/01/07 05:27:18;;;;;;;3.77;1.93;;;;;;;-18.55;50.11;100579.84;5080009;28;20040;-74
2024/01/07 05:29:46;;;;;;;4.87;1.77;;;;;;;-18.29;49.94;100614.34;5059694;28;20044;-74
2024/01/07 05:32:12;;;;;;;9.63;2.73;;;;;;;-18.30;49.53;100600.13;5064860;28;20486;-74
2024/01/07 05:34:38;;;;;;;5.03;3.00;;;;;;;-18.25;49.61;100610.59;5077756;28;20066;-75
2024/01/07 05:37:05;;;;;;;10.67;3.77;;;;;;;-18.24;49.98;100622.31;5081812;28;20748;-74
2024/01/07 05:39:31;;;;;;;9.00;4.40;;;;;;;-18.55;48.88;100562.47;5060233;28;20044;-75
2024/01/07 05:41:56;;;;;;;7.07;3.47;;;;;;;-18.56;49.39;100594.56;5101720;28;20159;-75
2024/01/07 05:44:22;;;;;;;8.67;4.10;;;;;;;-18.65;49.07;100605.19;5083604;28;20049;-75
2024/01/07 05:46:48;;;;;;;10.10;3.17;;;;;;;-18.75;48.56;100622.16;5083261;28;20039;-75
2024/01/07 05:49:14;;;;;;;4.33;2.23;;;;;;;-18.88;49.07;100632.25;5102708;28;20058;-75
2024/01/07 05:51:41;;;;;;;4.97;2.13;;;;;;;-18.75;49.52;100653.56;5083999;28;20104;-74
2024/01/07 05:54:07;;;;;;;5.33;2.13;;;;;;;-18.79;48.85;100649.84;5083955;28;20046;-74
2024/01/07 05:56:37;;;;;;;3.87;2.00;;;;;;;-18.91;49.01;100644.28;5083098;28;20043;-75
2024/01/07 05:59:03;;;;;;;8.15;3.17;;;;;;;-19.04;48.97;100633.59;5069804;28;20143;-74
2024/01/07 06:01:29;;;;;;;9.00;2.47;;;;;;;-19.15;50.09;100605.00;5087337;28;20045;-75
2024/01/07 06:03:55;;;;;;;8.17;3.37;;;;;;;-18.76;49.49;100696.50;5085096;28;20044;-75
2024/01/07 06:06:21;;;;;;;7.47;2.80;;;;;;;-18.74;49.45;100692.59;5083635;28;20062;-74
2024/01/07 06:08:47;;;;;;;5.80;2.57;;;;;;;-18.87;49.54;100677.81;5084052;28;20581;-74
2024/01/07 06:11:18;;;;;;;3.23;1.87;;;;;;;-19.14;49.60;100639.03;5103789;28;20039;-75
2024/01/07 06:13:44;;;;;;;9.52;2.67;;;;;;;-18.88;49.29;100691.84;5083904;28;20043;-73
2024/01/07 06:16:10;;;;;;;3.40;2.27;;;;;;;-18.60;49.73;100719.09;5069107;28;20032;-76
2024/01/07 06:18:36;;;;;;;7.63;2.13;;;;;;;-18.57;49.18;100717.88;5101734;28;20039;-75
2024/01/07 06:21:02;;;;;;;4.60;1.90;;;;;;;-18.66;49.26;100694.44;5082983;28;20096;-73
2024/01/07 06:23:28;;;;;;;8.53;2.10;;;;;;;-18.52;48.95;100710.97;5066338;28;20052;-73
2024/01/07 06:25:54;;;;;;;6.53;2.17;;;;;;;-18.43;49.76;100707.09;5101136;28;20043;-74
2024/01/07 06:28:20;;;;;;;8.77;3.27;;;;;;;-18.57;48.88;100683.09;5102164;28;20213;-75
2024/01/07 06:30:46;;;;;;;7.10;3.23;;;;;;;-18.12;49.37;100720.72;5070136;28;20132;-75
2024/01/07 06:33:13;;;;;;;5.17;2.33;;;;;;;-17.06;49.50;100738.72;5085633;28;20047;-73
2024/01/07 06:35:38;;;;;;;25.13;7.93;;;;;;;-15.96;49.96;100687.75;5068689;28;20119;-75
2024/01/07 06:38:04;;;;;;;5.83;3.17;;;;;;;-14.73;48.57;100684.19;5049075;28;20039;-75
2024/01/07 06:40:30;;;;;;;9.63;3.30;;;;;;;-13.33;48.95;100710.09;5086237;28;20051;-76
2024/01/07 06:42:56;;;;;;;8.53;3.33;;;;;;;-12.04;48.80;100729.25;5084309;28;20443;-75
2024/01/07 06:45:23;;;;;;;10.93;3.83;;;;;;;-11.05;47.83;100710.78;5101418;28;20040;-75
2024/01/07 06:47:49;;;;;;;13.10;4.80;;;;;;;-10.40;47.00;100675.47;5101761;28;20096;-77
2024/01/07 06:50:15;;;;;;;14.73;5.50;;;;;;;-9.87;46.56;100717.00;5103274;28;20040;-77
2024/01/07 06:52:41;;;;;;;14.47;5.87;;;;;;;-9.18;46.00;100725.34;5067347;28;20039;-75
2024/01/07 06:55:08;;;;;;;16.63;6.90;;;;;;;-8.78;45.36;100690.84;5102174;28;20073;-75
2024/01/07 06:57:34;;;;;;;11.88;5.43;;;;;;;-8.04;45.03;100734.69;5101651;28;20039;-75
2024/01/07 07:00:00;;;;;;;17.33;7.40;;;;;;;-7.84;44.90;100743.00;5065826;28;20052;-76
2024/01/07 07:02:26;;;;;;;16.50;6.40;;;;;;;-7.03;44.77;100742.53;5085085;28;20051;-76
2024/01/07 07:04:52;;;;;;;16.67;6.25;;;;;;;-6.33;44.20;100721.53;5066399;28;20043;-75
2024/01/07 07:07:18;;;;;;;14.10;5.30;;;;;;;-5.71;43.35;100713.25;5065003;28;20046;-76
2024/01/07 07:09:44;;;;;;;11.27;5.35;;;;;;;-5.02;43.01;100707.03;5084423;28;20044;-75
2024/01/07 07:12:12;;;;;;;11.60;5.22;;;;;;;-4.16;43.19;100726.25;5081552;28;20116;-76
2024/01/07 07:14:38;;;;;;;13.55;5.25;;;;;;;-3.61;41.82;100723.81;5102545;28;20047;-76
2024/01/07 07:17:04;;;;;;;11.93;5.40;;;;;;;-3.32;41.91;100737.50;5081099;28;20043;-75
2024/01/07 07:19:30;;;;;;;12.68;5.85;;;;;;;-2.65;41.25;100723.66;5081894;28;20081;-76
2024/01/07 07:21:59;;;;;;;13.23;6.07;;;;;;;-1.84;40.83;100740.19;5100515;28;20043;-74
2024/01/07 07:24:25;;;;;;;13.57;6.72;;;;;;;-1.39;39.71;100731.56;5101288;28;20054;-76
2024/01/07 07:26:51;;;;;;;13.52;6.72;;;;;;;-0.72;39.27;100755.53;5098694;28;20207;-76
2024/01/07 07:29:17;;;;;;;14.75;7.00;;;;;;;-0.23;38.74;100729.03;5099719;28;20043;-75
2024/01/07 07:31:43;;;;;;;18.73;7.38;;;;;;;0.21;38.18;100750.78;5082785;28;20063;-74
2024/01/07 07:34:10;;;;;;;18.88;8.77;;;;;;;0.55;37.48;100736.16;5065986;28;21056;-75
2024/01/07 07:36:36;;;;;;;19.65;9.15;;;;;;;0.95;36.62;100729.44;5082176;28;20040;-75
2024/01/07 07:39:01;;;;;;;18.50;7.75;;;;;;;1.38;36.03;100712.47;5099929;28;20051;-77
2024/01/07 07:41:28;;;;;;;21.63;8.75;;;;;;;2.05;35.44;100727.28;5081620;28;20079;-75
2024/01/07 07:43:55;;;;;;;19.63;7.60;;;;;;;2.29;34.42;100731.63;5082024;28;20084;-76
2024/01/07 07:46:21;;;;;;;13.48;6.10;;;;;;;2.41;34.20;100709.00;5081431;28;20400;-76
2024/01/07 07:48:47;;;;;;;11.10;6.13;;;;;;;2.43;33.95;100706.47;5068384;28;20044;-75
2024/01/07 07:51:13;;;;;;;9.52;4.90;;;;;;;2.51;33.18;100717.06;5098409;28;20269;-75
2024/01/07 07:53:39;;;;;;;9.48;5.05;;;;;;;2.63;32.85;100732.94;5071178;28;20035;-76
2024/01/07 07:56:06;;;;;;;11.90;5.65;;;;;;;2.71;31.97;100743.50;5048910;28;20116;-75
2024/01/07 07:58:32;;;;;;;10.65;5.72;;;;;;;2.05;32.72;100678.47;5065531;28;20031;-76
2024/01/07 08:00:58;;;;;;;11.27;5.82;;;;;;;2.70;32.22;100762.31;5082918;28;20148;-76
2024/01/07 08:03:24;;;;;;;12.50;6.22;;;;;;;3.28;31.69;100778.19;5081725;28;20066;-77
2024/01/07 08:05:50;;;;;;;11.82;6.22;;;;;;;3.77;31.59;100781.63;5079973;28;20032;-77
2024/01/07 08:08:19;;;;;;;12.23;6.78;;;;;;;4.50;30.97;100748.81;5082583;28;20081;-77
2024/01/07 08:10:45;;;;;;;9.85;6.38;;;;;;;4.85;29.84;100765.28;5053900;28;20067;-76
2024/01/07 08:13:11;;;;;;;10.68;6.55;;;;;;;5.37;29.59;100769.41;5081770;28;20036;-76
2024/01/07 08:15:37;;;;;;;13.30;7.40;;;;;;;6.02;29.71;100767.66;5083161;28;20047;-77
2024/01/07 08:18:04;;;;;;;12.02;7.50;;;;;;;6.39;29.17;100775.44;5049458;28;20092;-77
2024/01/07 08:20:31;;;;;;;12.07;7.15;;;;;;;6.58;28.47;100754.34;5066319;28;20047;-77
2024/01/07 08:22:57;;;;;;;10.95;6.75;;;;;;;6.87;28.27;100785.19;5065504;28;20043;-77
2024/01/07 08:25:23;;;;;;;10.88;6.07;;;;;;;7.14;27.91;100771.09;5083184;28;20043;-76
2024/01/07 08:27:50;;;;;;;11.32;7.00;;;;;;;7.51;27.30;100769.22;5046633;28;20039;-76
2024/01/07 08:30:16;;;;;;;12.88;7.13;;;;;;;7.54;27.06;100786.53;5083792;28;20051;-76
2024/01/07 08:32:42;;;;;;;13.02;7.32;;;;;;;7.87;26.45;100790.59;5084364;28;20373;-76
2024/01/07 08:35:09;;;;;;;12.52;7.30;;;;;;;8.14;26.51;100768.59;5067003;28;20063;-75
2024/01/07 08:37:44;;;;;;;12.93;6.85;;;;;;;8.46;25.71;100769.97;5083386;28;20028;-77
2024/01/07 08:40:13;;;;;;;11.77;7.15;;;;;;;8.66;25.42;100775.47;5066392;28;20044;-75
2024/01/07 08:42:39;;;;;;;12.45;7.53;;;;;;;9.04;25.25;100794.19;5099775;28;20097;-77
2024/01/07 08:45:06;;;;;;;12.60;7.22;;;;;;;9.51;24.93;100792.16;5083846;28;20469;-75
2024/01/07 08:47:32;;;;;;;11.68;7.18;;;;;;;9.90;24.47;100798.63;5068609;28;20528;-75
2024/01/07 08:49:58;;;;;;;15.10;7.30;;;;;;;9.99;23.86;100771.81;5085210;28;20409;-77
2024/01/07 08:52:24;;;;;;;10.55;6.75;;;;;;;10.29;23.73;100803.28;5083667;28;20063;-77
2024/01/07 08:54:50;;;;;;;13.75;7.53;;;;;;;10.37;23.23;100801.63;5083730;28;20588;-79
2024/01/07 08:57:17;;;;;;;11.82;7.15;;;;;;;10.15;22.90;100739.03;5083817;28;20077;-76
2024/01/07 08:59:45;;;;;;;12.35;7.72;;;;;;;10.91;22.48;100798.56;5084291;28;20043;-75
2024/01/07 09:02:11;;;;;;;14.55;7.93;;;;;;;11.09;22.69;100782.16;5088027;28;20031;-75
2024/01/07 09:04:37;;;;;;;12.82;8.32;;;;;;;11.11;22.35;100790.84;5068086;28;20040;-77
2024/01/07 09:07:03;;;;;;;14.55;8.35;;;;;;;11.10;22.13;100779.56;5083232;28;20074;-77
2024/01/07 09:09:29;;;;;;;13.80;7.97;;;;;;;10.94;21.81;100759.50;5086931;28;20043;-77
2024/01/07 09:11:57;;;;;;;13.57;8.38;;;;;;;11.33;21.45;100781.41;5070779;28;20416;-75
2024/01/07 09:14:25;;;;;;;13.77;8.20;;;;;;;11.18;21.54;100782.19;5071142;28;20142;-74
2024/01/07 09:16:51;;;;;;;14.50;7.90;;;;;;;11.32;21.14;100795.28;5083733;28;20080;-74
2024/01/07 09:19:17;;;;;;;12.23;7.45;;;;;;;11.06;20.59;100775.19;5069277;28;20497;-75
2024/01/07 09:21:43;;;;;;;13.07;7.78;;;;;;;11.19;20.52;100791.75;5102907;28;20035;-73
2024/01/07 09:24:09;;;;;;;12.80;7.47;;;;;;;10.32;20.41;100795.50;5083024;28;20043;-73
2024/01/07 09:26:35;;;;;;;12.68;7.55;;;;;;;9.50;20.42;100801.66;5084878;28;20081;-74
2024/01/07 09:29:01;;;;;;;13.95;8.05;;;;;;;9.18;20.57;100806.47;5102133;28;20143;-74
2024/01/07 09:31:28;;;;;;;14.70;8.20;;;;;;;7.87;20.59;100787.13;5085483;28;20040;-76
2024/01/07 09:33:54;;;;;;;16.33;8.50;;;;;;;7.70;20.78;100816.19;5085717;28;20409;-75
2024/01/07 09:36:19;;;;;;;13.80;8.77;;;;;;;7.83;21.01;100812.13;5082861;28;20573;-75
2024/01/07 09:38:45;;;;;;;17.48;9.32;;;;;;;8.18;20.84;100795.44;5101260;28;20036;-73
2024/01/07 09:41:12;;;;;;;15.80;8.35;;;;;;;7.55;20.74;100780.50;5102211;28;20070;-75
2024/01/07 09:43:37;;;;;;;14.73;8.38;;;;;;;7.20;20.29;100791.03;5084682;28;20161;-75
2024/01/07 09:46:03;;;;;;;16.25;9.18;;;;;;;7.07;20.38;100818.38;5083404;28;20063;-74
2024/01/07 09:48:30;;;;;;;14.02;8.85;;;;;;;7.21;20.92;100814.34;5101801;28;20040;-74
2024/01/07 09:50:58;;;;;;;15.38;8.32;;;;;;;7.46;20.83;100824.38;5102335;28;20039;-74
2024/01/07 09:53:30;;;;;;;13.70;7.75;;;;;;;8.09;20.82;100804.81;5067587;28;20051;-74
2024/01/07 09:56:12;;;;;;;15.18;8.23;;;;;;;8.01;20.40;100834.03;5084431;28;20036;-79
2024/01/07 09:58:42;;;;;;;16.17;8.15;;;;;;;7.72;20.61;100814.50;5067942;28;20529;-78
2024/01/07 10:01:10;;;;;;;16.45;9.40;;;;;;;6.09;19.98;100802.28;5066881;28;20051;-77
2024/01/07 10:03:41;;;;;;;18.70;10.60;;;;;;;4.59;20.83;100830.72;5070983;28;20044;-77
2024/01/07 10:06:07;;;;;;;15.95;8.80;;;;;;;2.79;20.74;100854.34;5086555;28;20067;-77
2024/01/07 10:08:34;;;;;;;19.17;9.55;;;;;;;0.58;21.59;100720.94;5084445;28;20095;-78
2024/01/07 10:11:02;;;;;;;21.33;9.63;;;;;;;0.25;21.24;100834.63;5104877;28;20042;-77
2024/01/07 10:13:32;;;;;;;27.98;12.98;;;;;;;-0.58;22.29;100851.72;5064795;28;20059;-75
2024/01/07 10:16:01;;;;;;;24.15;11.23;;;;;;;-1.70;22.30;100775.84;5083982;28;20032;-74
2024/01/07 10:18:30;;;;;;;30.92;13.68;;;;;;;-2.27;22.77;100814.25;5084258;28;20047;-74
2024/01/07 10:21:03;;;;;;;20.25;9.40;;;;;;;-3.36;23.31;100777.13;5068728;28;20366;-78
2024/01/07 10:23:29;;;;;;;14.90;7.07;;;;;;;-3.95;23.50;100834.44;5065690;28;20066;-74
2024/01/07 10:25:57;;;;;;;14.50;7.28;;;;;;;-4.60;23.47;100855.50;5069357;28;20027;-71
2024/01/07 10:28:26;;;;;;;12.52;7.07;;;;;;;-5.01;24.22;100850.97;5087456;28;20736;-74
2024/01/07 10:30:52;;;;;;;13.55;6.63;;;;;;;-5.53;24.25;100831.22;5085137;28;20051;-72
2024/01/07 10:33:23;;;;;;;14.23;7.07;;;;;;;-5.75;24.44;100869.38;5066190;28;20042;-72
2024/01/07 10:36:01;;;;;;;15.55;8.05;;;;;;;-6.10;24.98;100882.88;5082128;28;20043;-71
2024/01/07 10:38:27;;;;;;;13.30;6.47;;;;;;;-6.51;25.43;100868.84;5101377;28;20073;-71
2024/01/07 10:40:58;;;;;;;15.48;7.90;;;;;;;-7.02;25.35;100875.91;5081710;28;20055;-75
2024/01/07 10:43:28;;;;;;;15.27;7.50;;;;;;;-7.42;25.65;100862.63;5087287;28;20505;-70
2024/01/07 10:45:55;;;;;;;12.85;6.72;;;;;;;-7.76;26.09;100845.59;5100526;28;20103;-73
2024/01/07 10:48:26;;;;;;;13.63;6.25;;;;;;;-7.85;26.46;100862.53;5082776;28;20096;-68
2024/01/07 10:50:56;;;;;;;14.60;6.68;;;;;;;-8.69;26.09;100809.34;5085815;28;20051;-73
2024/01/07 10:53:23;;;;;;;13.40;5.80;;;;;;;-9.24;26.72;100798.84;5085523;28;20138;-73
2024/01/07 10:55:59;;;;;;;13.63;6.40;;;;;;;-9.30;27.17;100831.09;5065103;28;20482;-73
2024/01/07 10:58:28;;;;;;;11.65;6.10;;;;;;;-8.92;27.04;100896.56;5066948;28;20130;-72
2024/01/07 11:00:54;;;;;;;13.82;5.85;;;;;;;-9.10;27.26;100908.50;5066297;28;20135;-73
2024/01/07 11:03:45;;;;;;;15.18;5.90;;;;;;;-9.72;27.60;100861.09;5099663;28;20085;-72
2024/01/07 11:06:34;;;;;;;15.43;6.03;;;;;;;-9.80;28.11;100869.59;5098850;28;20494;-74
2024/01/07 11:09:39;;;;;;;16.17;6.90;;;;;;;-10.57;28.13;100767.91;5080917;28;20035;-75
2024/01/07 11:12:07;;;;;;;12.47;5.57;;;;;;;-9.92;28.34;100894.56;5007100;28;20644;-73
2024/01/07 11:14:52;;;;;;;14.47;6.53;;;;;;;-10.21;28.58;100891.94;5070724;28;20073;-74